sensor_id;sensor_type;location;lat;lon;timestamp;temperature;humidity
32811;DHT22;65470;47.324;8.548;2023-04-25T00:01:11;11.80;98.30
32811;DHT22;65470;47.324;8.548;2023-04-25T00:03:38;11.80;98.50
32811;DHT22;65470;47.324;8.548;2023-04-25T00:06:05;11.80;97.70
32811;DHT22;65470;47.324;8.548;2023-04-25T00:08:32;11.90;98.00
32811;DHT22;65470;47.324;8.548;2023-04-25T00:10:58;11.80;98.40
32811;DHT22;65470;47.324;8.548;2023-04-25T00:13:24;11.80;98.50
32811;DHT22;65470;47.324;8.548;2023-04-25T00:15:51;11.70;98.00
32811;DHT22;65470;47.324;8.548;2023-04-25T00:18:18;11.70;97.60
32811;DHT22;65470;47.324;8.548;2023-04-25T00:20:44;11.70;98.10
32811;DHT22;65470;47.324;8.548;2023-04-25T00:23:13;11.70;97.80
32811;DHT22;65470;47.324;8.548;2023-04-25T00:25:44;11.70;97.70
32811;DHT22;65470;47.324;8.548;2023-04-25T00:28:11;11.60;97.80
32811;DHT22;65470;47.324;8.548;2023-04-25T00:30:36;11.60;97.60
32811;DHT22;65470;47.324;8.548;2023-04-25T00:33:02;11.70;97.90
32811;DHT22;65470;47.324;8.548;2023-04-25T00:35:28;11.60;97.70
32811;DHT22;65470;47.324;8.548;2023-04-25T00:37:54;11.60;97.50
32811;DHT22;65470;47.324;8.548;2023-04-25T00:40:20;11.60;97.40
32811;DHT22;65470;47.324;8.548;2023-04-25T00:42:47;11.50;97.10
32811;DHT22;65470;47.324;8.548;2023-04-25T00:45:13;11.60;97.30
32811;DHT22;65470;47.324;8.548;2023-04-25T00:47:41;11.60;97.10
32811;DHT22;65470;47.324;8.548;2023-04-25T00:50:07;11.70;97.00
32811;DHT22;65470;47.324;8.548;2023-04-25T00:52:33;11.60;96.70
32811;DHT22;65470;47.324;8.548;2023-04-25T00:54:59;11.60;96.80
32811;DHT22;65470;47.324;8.548;2023-04-25T00:57:25;11.60;96.70
32811;DHT22;65470;47.324;8.548;2023-04-25T00:59:52;11.60;96.50
32811;DHT22;65470;47.324;8.548;2023-04-25T01:02:18;11.60;96.40
32811;DHT22;65470;47.324;8.548;2023-04-25T01:04:45;11.60;96.30
32811;DHT22;65470;47.324;8.548;2023-04-25T01:07:10;11.50;96.70
32811;DHT22;65470;47.324;8.548;2023-04-25T01:09:36;11.50;96.30
32811;DHT22;65470;47.324;8.548;2023-04-25T01:12:02;11.60;97.60
32811;DHT22;65470;47.324;8.548;2023-04-25T01:14:28;11.50;97.40
32811;DHT22;65470;47.324;8.548;2023-04-25T01:16:55;11.40;97.90
32811;DHT22;65470;47.324;8.548;2023-04-25T01:19:21;11.40;98.90
32811;DHT22;65470;47.324;8.548;2023-04-25T01:21:46;11.20;98.60
32811;DHT22;65470;47.324;8.548;2023-04-25T01:24:12;11.20;98.90
32811;DHT22;65470;47.324;8.548;2023-04-25T01:26:40;11.10;98.80
32811;DHT22;65470;47.324;8.548;2023-04-25T01:29:09;11.10;99.20
32811;DHT22;65470;47.324;8.548;2023-04-25T01:31:36;11.00;99.30
32811;DHT22;65470;47.324;8.548;2023-04-25T01:34:02;11.00;99.90
32811;DHT22;65470;47.324;8.548;2023-04-25T01:36:28;10.90;99.90
32811;DHT22;65470;47.324;8.548;2023-04-25T01:38:54;10.80;99.90
32811;DHT22;65470;47.324;8.548;2023-04-25T01:41:20;10.70;99.90
32811;DHT22;65470;47.324;8.548;2023-04-25T01:43:48;10.70;99.90
32811;DHT22;65470;47.324;8.548;2023-04-25T01:46:14;10.60;99.90
32811;DHT22;65470;47.324;8.548;2023-04-25T01:48:39;10.60;99.90
32811;DHT22;65470;47.324;8.548;2023-04-25T01:51:05;10.50;99.90
32811;DHT22;65470;47.324;8.548;2023-04-25T01:53:31;10.40;99.90
32811;DHT22;65470;47.324;8.548;2023-04-25T01:55:57;10.40;99.90
32811;DHT22;65470;47.324;8.548;2023-04-25T01:58:23;10.30;99.90
32811;DHT22;65470;47.324;8.548;2023-04-25T02:04:10;10.30;99.90
32811;DHT22;65470;47.324;8.548;2023-04-25T02:06:36;10.20;99.90
32811;DHT22;65470;47.324;8.548;2023-04-25T02:09:01;10.10;99.90
32811;DHT22;65470;47.324;8.548;2023-04-25T02:11:27;10.00;99.90
32811;DHT22;65470;47.324;8.548;2023-04-25T02:13:53;9.90;99.90
32811;DHT22;65470;47.324;8.548;2023-04-25T02:16:18;9.90;99.90
32811;DHT22;65470;47.324;8.548;2023-04-25T02:18:44;9.90;99.90
32811;DHT22;65470;47.324;8.548;2023-04-25T02:21:10;9.80;99.90
32811;DHT22;65470;47.324;8.548;2023-04-25T02:23:36;9.80;99.90
32811;DHT22;65470;47.324;8.548;2023-04-25T02:26:02;9.90;99.90
32811;DHT22;65470;47.324;8.548;2023-04-25T02:28:28;10.00;99.90
32811;DHT22;65470;47.324;8.548;2023-04-25T02:30:53;10.00;99.90
32811;DHT22;65470;47.324;8.548;2023-04-25T02:33:19;10.00;99.90
32811;DHT22;65470;47.324;8.548;2023-04-25T02:35:46;10.10;99.90
32811;DHT22;65470;47.324;8.548;2023-04-25T02:38:12;10.00;99.90
32811;DHT22;65470;47.324;8.548;2023-04-25T02:40:37;10.10;99.90
32811;DHT22;65470;47.324;8.548;2023-04-25T02:43:03;10.10;99.90
32811;DHT22;65470;47.324;8.548;2023-04-25T02:45:28;10.20;99.90
32811;DHT22;65470;47.324;8.548;2023-04-25T02:47:54;10.20;99.90
32811;DHT22;65470;47.324;8.548;2023-04-25T02:50:20;10.20;99.90
32811;DHT22;65470;47.324;8.548;2023-04-25T02:52:45;10.30;99.90
32811;DHT22;65470;47.324;8.548;2023-04-25T02:55:12;10.40;99.90
32811;DHT22;65470;47.324;8.548;2023-04-25T02:57:38;10.40;99.90
32811;DHT22;65470;47.324;8.548;2023-04-25T03:00:04;10.50;99.90
32811;DHT22;65470;47.324;8.548;2023-04-25T03:02:30;10.50;99.90
32811;DHT22;65470;47.324;8.548;2023-04-25T03:04:56;10.50;99.90
32811;DHT22;65470;47.324;8.548;2023-04-25T03:07:22;10.40;99.90
32811;DHT22;65470;47.324;8.548;2023-04-25T03:09:47;10.40;99.90
32811;DHT22;65470;47.324;8.548;2023-04-25T03:12:13;10.40;99.90
32811;DHT22;65470;47.324;8.548;2023-04-25T03:14:39;10.30;99.90
32811;DHT22;65470;47.324;8.548;2023-04-25T03:17:04;10.30;99.90
32811;DHT22;65470;47.324;8.548;2023-04-25T03:19:30;10.30;99.90
32811;DHT22;65470;47.324;8.548;2023-04-25T03:21:56;10.30;99.90
32811;DHT22;65470;47.324;8.548;2023-04-25T03:24:21;10.30;99.90
32811;DHT22;65470;47.324;8.548;2023-04-25T03:26:47;10.20;99.90
32811;DHT22;65470;47.324;8.548;2023-04-25T03:29:13;10.10;99.90
32811;DHT22;65470;47.324;8.548;2023-04-25T03:31:38;10.10;99.90
32811;DHT22;65470;47.324;8.548;2023-04-25T03:34:04;10.10;99.90
32811;DHT22;65470;47.324;8.548;2023-04-25T03:36:29;10.00;99.90
32811;DHT22;65470;47.324;8.548;2023-04-25T03:38:55;10.00;99.90
32811;DHT22;65470;47.324;8.548;2023-04-25T03:41:21;9.90;99.90
32811;DHT22;65470;47.324;8.548;2023-04-25T03:43:47;9.90;99.90
32811;DHT22;65470;47.324;8.548;2023-04-25T03:46:12;9.80;99.90
32811;DHT22;65470;47.324;8.548;2023-04-25T03:48:38;9.80;99.90
32811;DHT22;65470;47.324;8.548;2023-04-25T03:51:03;9.70;99.90
32811;DHT22;65470;47.324;8.548;2023-04-25T03:53:29;9.70;99.90
32811;DHT22;65470;47.324;8.548;2023-04-25T03:55:55;9.60;99.90
32811;DHT22;65470;47.324;8.548;2023-04-25T03:58:20;9.60;99.90
32811;DHT22;65470;47.324;8.548;2023-04-25T04:00:48;9.60;99.90
32811;DHT22;65470;47.324;8.548;2023-04-25T04:03:13;9.60;99.90
32811;DHT22;65470;47.324;8.548;2023-04-25T04:05:39;9.50;99.90
32811;DHT22;65470;47.324;8.548;2023-04-25T04:08:06;9.60;99.90
32811;DHT22;65470;47.324;8.548;2023-04-25T04:10:31;9.60;99.90
32811;DHT22;65470;47.324;8.548;2023-04-25T04:12:57;9.50;99.90
32811;DHT22;65470;47.324;8.548;2023-04-25T04:15:22;9.60;99.90
32811;DHT22;65470;47.324;8.548;2023-04-25T04:17:48;9.60;99.90
32811;DHT22;65470;47.324;8.548;2023-04-25T04:20:14;9.70;99.90
32811;DHT22;65470;47.324;8.548;2023-04-25T04:22:40;9.70;99.90
32811;DHT22;65470;47.324;8.548;2023-04-25T04:25:06;9.70;99.90
32811;DHT22;65470;47.324;8.548;2023-04-25T04:27:32;9.60;99.90
32811;DHT22;65470;47.324;8.548;2023-04-25T04:29:57;9.60;99.90
32811;DHT22;65470;47.324;8.548;2023-04-25T04:32:23;9.60;99.90
32811;DHT22;65470;47.324;8.548;2023-04-25T04:34:49;9.60;99.90
32811;DHT22;65470;47.324;8.548;2023-04-25T04:37:15;9.60;99.90
32811;DHT22;65470;47.324;8.548;2023-04-25T04:39:40;9.60;99.90
32811;DHT22;65470;47.324;8.548;2023-04-25T04:42:06;9.70;99.90
32811;DHT22;65470;47.324;8.548;2023-04-25T04:44:33;9.80;99.90
32811;DHT22;65470;47.324;8.548;2023-04-25T04:46:59;9.80;99.90
32811;DHT22;65470;47.324;8.548;2023-04-25T04:49:25;10.00;99.90
32811;DHT22;65470;47.324;8.548;2023-04-25T04:51:51;10.10;99.90
32811;DHT22;65470;47.324;8.548;2023-04-25T04:54:17;10.20;99.90
32811;DHT22;65470;47.324;8.548;2023-04-25T04:56:43;10.40;99.90
32811;DHT22;65470;47.324;8.548;2023-04-25T04:59:09;10.40;99.90
32811;DHT22;65470;47.324;8.548;2023-04-25T05:01:34;10.50;99.90
32811;DHT22;65470;47.324;8.548;2023-04-25T05:04:01;10.60;99.90
32811;DHT22;65470;47.324;8.548;2023-04-25T05:06:28;10.70;99.90
32811;DHT22;65470;47.324;8.548;2023-04-25T05:08:57;10.70;99.90
32811;DHT22;65470;47.324;8.548;2023-04-25T05:11:23;10.70;99.90
32811;DHT22;65470;47.324;8.548;2023-04-25T05:13:52;10.80;99.90
32811;DHT22;65470;47.324;8.548;2023-04-25T05:16:18;10.90;99.90
32811;DHT22;65470;47.324;8.548;2023-04-25T05:18:44;10.90;99.90
32811;DHT22;65470;47.324;8.548;2023-04-25T05:21:09;11.00;99.90
32811;DHT22;65470;47.324;8.548;2023-04-25T05:23:35;11.10;99.90
32811;DHT22;65470;47.324;8.548;2023-04-25T05:26:00;11.20;99.90
32811;DHT22;65470;47.324;8.548;2023-04-25T05:28:26;11.20;99.90
32811;DHT22;65470;47.324;8.548;2023-04-25T05:30:52;11.40;99.90
32811;DHT22;65470;47.324;8.548;2023-04-25T05:33:18;11.40;99.90
32811;DHT22;65470;47.324;8.548;2023-04-25T05:35:44;11.40;99.90
32811;DHT22;65470;47.324;8.548;2023-04-25T05:38:10;11.40;99.90
32811;DHT22;65470;47.324;8.548;2023-04-25T05:40:36;11.50;99.90
32811;DHT22;65470;47.324;8.548;2023-04-25T05:43:01;11.60;99.90
32811;DHT22;65470;47.324;8.548;2023-04-25T05:45:27;11.70;99.90
32811;DHT22;65470;47.324;8.548;2023-04-25T05:47:53;11.80;99.90
32811;DHT22;65470;47.324;8.548;2023-04-25T05:50:18;11.80;99.90
32811;DHT22;65470;47.324;8.548;2023-04-25T05:52:44;11.90;99.90
32811;DHT22;65470;47.324;8.548;2023-04-25T05:55:09;12.00;99.90
32811;DHT22;65470;47.324;8.548;2023-04-25T05:57:35;12.20;99.30
32811;DHT22;65470;47.324;8.548;2023-04-25T06:00:01;12.20;99.00
32811;DHT22;65470;47.324;8.548;2023-04-25T06:02:27;12.00;98.90
32811;DHT22;65470;47.324;8.548;2023-04-25T06:04:53;11.70;99.90
32811;DHT22;65470;47.324;8.548;2023-04-25T06:07:19;11.70;99.90
32811;DHT22;65470;47.324;8.548;2023-04-25T06:09:45;11.60;99.90
32811;DHT22;65470;47.324;8.548;2023-04-25T06:12:11;11.50;99.90
32811;DHT22;65470;47.324;8.548;2023-04-25T06:14:37;11.60;99.90
32811;DHT22;65470;47.324;8.548;2023-04-25T06:17:03;11.60;99.90
32811;DHT22;65470;47.324;8.548;2023-04-25T06:19:34;11.40;99.90
32811;DHT22;65470;47.324;8.548;2023-04-25T06:21:59;11.30;99.90
32811;DHT22;65470;47.324;8.548;2023-04-25T06:24:25;11.20;99.90
32811;DHT22;65470;47.324;8.548;2023-04-25T06:26:51;11.20;99.90
32811;DHT22;65470;47.324;8.548;2023-04-25T06:29:16;11.10;99.90
32811;DHT22;65470;47.324;8.548;2023-04-25T06:31:42;10.90;99.90
32811;DHT22;65470;47.324;8.548;2023-04-25T06:34:08;10.70;99.90
32811;DHT22;65470;47.324;8.548;2023-04-25T06:36:33;10.70;99.90
32811;DHT22;65470;47.324;8.548;2023-04-25T06:38:59;10.70;99.90
32811;DHT22;65470;47.324;8.548;2023-04-25T06:41:24;10.60;99.90
32811;DHT22;65470;47.324;8.548;2023-04-25T06:43:50;10.40;99.90
32811;DHT22;65470;47.324;8.548;2023-04-25T06:46:16;10.10;99.90
32811;DHT22;65470;47.324;8.548;2023-04-25T06:48:41;9.80;99.90
32811;DHT22;65470;47.324;8.548;2023-04-25T06:51:07;9.70;99.90
32811;DHT22;65470;47.324;8.548;2023-04-25T06:53:33;9.70;99.90
32811;DHT22;65470;47.324;8.548;2023-04-25T06:55:58;9.60;99.90
32811;DHT22;65470;47.324;8.548;2023-04-25T06:58:24;9.40;99.90
32811;DHT22;65470;47.324;8.548;2023-04-25T07:00:51;9.20;99.90
32811;DHT22;65470;47.324;8.548;2023-04-25T07:03:17;9.30;99.90
32811;DHT22;65470;47.324;8.548;2023-04-25T07:05:42;9.30;99.90
32811;DHT22;65470;47.324;8.548;2023-04-25T07:08:08;9.40;99.90
32811;DHT22;65470;47.324;8.548;2023-04-25T07:10:34;9.40;99.90
32811;DHT22;65470;47.324;8.548;2023-04-25T07:13:00;9.50;99.90
32811;DHT22;65470;47.324;8.548;2023-04-25T07:15:25;9.50;99.90
32811;DHT22;65470;47.324;8.548;2023-04-25T07:17:51;9.70;99.90
32811;DHT22;65470;47.324;8.548;2023-04-25T07:20:17;9.80;99.90
32811;DHT22;65470;47.324;8.548;2023-04-25T07:22:42;9.90;99.90
32811;DHT22;65470;47.324;8.548;2023-04-25T07:25:08;9.90;99.90
32811;DHT22;65470;47.324;8.548;2023-04-25T07:27:34;9.80;99.90
32811;DHT22;65470;47.324;8.548;2023-04-25T07:30:00;10.00;99.90
32811;DHT22;65470;47.324;8.548;2023-04-25T07:32:26;9.90;99.90
32811;DHT22;65470;47.324;8.548;2023-04-25T07:34:52;10.00;99.90
32811;DHT22;65470;47.324;8.548;2023-04-25T07:37:17;10.10;99.90
32811;DHT22;65470;47.324;8.548;2023-04-25T07:39:44;10.00;99.90
32811;DHT22;65470;47.324;8.548;2023-04-25T07:42:11;10.00;99.90
32811;DHT22;65470;47.324;8.548;2023-04-25T07:44:37;10.30;99.90
32811;DHT22;65470;47.324;8.548;2023-04-25T07:47:09;10.30;99.90
32811;DHT22;65470;47.324;8.548;2023-04-25T07:49:38;10.40;99.90
32811;DHT22;65470;47.324;8.548;2023-04-25T07:52:05;10.50;99.90
32811;DHT22;65470;47.324;8.548;2023-04-25T07:54:35;10.50;99.90
32811;DHT22;65470;47.324;8.548;2023-04-25T07:57:01;10.70;99.90
32811;DHT22;65470;47.324;8.548;2023-04-25T07:59:27;10.70;99.90
32811;DHT22;65470;47.324;8.548;2023-04-25T08:01:53;10.60;99.90
32811;DHT22;65470;47.324;8.548;2023-04-25T08:04:19;10.60;99.90
32811;DHT22;65470;47.324;8.548;2023-04-25T08:06:47;10.60;99.90
32811;DHT22;65470;47.324;8.548;2023-04-25T08:09:17;10.40;99.90
32811;DHT22;65470;47.324;8.548;2023-04-25T08:11:42;10.60;99.90
32811;DHT22;65470;47.324;8.548;2023-04-25T08:14:08;10.80;99.90
32811;DHT22;65470;47.324;8.548;2023-04-25T08:16:34;11.00;99.90
32811;DHT22;65470;47.324;8.548;2023-04-25T08:19:00;11.30;99.90
32811;DHT22;65470;47.324;8.548;2023-04-25T08:21:26;11.50;99.90
32811;DHT22;65470;47.324;8.548;2023-04-25T08:23:52;12.10;99.90
32811;DHT22;65470;47.324;8.548;2023-04-25T08:26:19;12.80;99.90
32811;DHT22;65470;47.324;8.548;2023-04-25T08:28:46;13.00;99.90
32811;DHT22;65470;47.324;8.548;2023-04-25T08:31:14;13.20;99.90
32811;DHT22;65470;47.324;8.548;2023-04-25T08:33:40;13.40;99.90
32811;DHT22;65470;47.324;8.548;2023-04-25T08:36:06;13.00;99.90
32811;DHT22;65470;47.324;8.548;2023-04-25T08:38:31;13.30;99.90
32811;DHT22;65470;47.324;8.548;2023-04-25T08:40:59;14.30;99.90
32811;DHT22;65470;47.324;8.548;2023-04-25T08:43:26;14.60;99.90
32811;DHT22;65470;47.324;8.548;2023-04-25T08:45:54;14.30;99.90
32811;DHT22;65470;47.324;8.548;2023-04-25T08:48:24;13.60;99.90
32811;DHT22;65470;47.324;8.548;2023-04-25T08:50:53;13.40;99.90
32811;DHT22;65470;47.324;8.548;2023-04-25T08:53:24;13.20;99.90
32811;DHT22;65470;47.324;8.548;2023-04-25T08:55:50;13.40;99.90
32811;DHT22;65470;47.324;8.548;2023-04-25T08:58:18;13.50;99.90
32811;DHT22;65470;47.324;8.548;2023-04-25T09:00:46;13.60;99.90
32811;DHT22;65470;47.324;8.548;2023-04-25T09:03:12;14.00;99.90
32811;DHT22;65470;47.324;8.548;2023-04-25T09:05:39;14.50;99.90
32811;DHT22;65470;47.324;8.548;2023-04-25T09:08:05;15.10;99.90
32811;DHT22;65470;47.324;8.548;2023-04-25T09:10:31;15.40;99.90
32811;DHT22;65470;47.324;8.548;2023-04-25T09:13:11;15.70;99.90
32811;DHT22;65470;47.324;8.548;2023-04-25T09:16:06;16.40;99.90
32811;DHT22;65470;47.324;8.548;2023-04-25T09:18:33;16.70;99.90
32811;DHT22;65470;47.324;8.548;2023-04-25T09:21:10;16.20;99.60
32811;DHT22;65470;47.324;8.548;2023-04-25T09:23:47;15.40;99.90
32811;DHT22;65470;47.324;8.548;2023-04-25T09:26:18;15.00;99.90
32811;DHT22;65470;47.324;8.548;2023-04-25T09:28:44;14.70;99.90
32811;DHT22;65470;47.324;8.548;2023-04-25T09:31:11;14.40;99.90
32811;DHT22;65470;47.324;8.548;2023-04-25T09:33:37;14.20;99.90
32811;DHT22;65470;47.324;8.548;2023-04-25T09:36:05;14.00;99.90
32811;DHT22;65470;47.324;8.548;2023-04-25T09:38:43;13.80;99.90
32811;DHT22;65470;47.324;8.548;2023-04-25T09:41:09;13.70;99.90
32811;DHT22;65470;47.324;8.548;2023-04-25T09:43:36;13.40;99.90
32811;DHT22;65470;47.324;8.548;2023-04-25T09:46:02;12.90;99.90
32811;DHT22;65470;47.324;8.548;2023-04-25T09:48:28;12.70;99.90
32811;DHT22;65470;47.324;8.548;2023-04-25T09:51:03;12.40;99.90
32811;DHT22;65470;47.324;8.548;2023-04-25T09:53:30;12.30;99.90
32811;DHT22;65470;47.324;8.548;2023-04-25T09:56:00;12.30;99.90
32811;DHT22;65470;47.324;8.548;2023-04-25T09:58:29;12.50;99.90
32811;DHT22;65470;47.324;8.548;2023-04-25T10:01:00;13.00;99.90
32811;DHT22;65470;47.324;8.548;2023-04-25T10:03:26;13.80;99.90
32811;DHT22;65470;47.324;8.548;2023-04-25T10:05:52;15.00;99.90
32811;DHT22;65470;47.324;8.548;2023-04-25T10:08:19;16.40;99.90
32811;DHT22;65470;47.324;8.548;2023-04-25T10:10:46;17.20;99.90
32811;DHT22;65470;47.324;8.548;2023-04-25T10:13:14;18.50;99.90
32811;DHT22;65470;47.324;8.548;2023-04-25T10:15:41;20.00;94.90
32811;DHT22;65470;47.324;8.548;2023-04-25T10:18:07;21.00;89.30
32811;DHT22;65470;47.324;8.548;2023-04-25T10:20:33;21.10;84.60
32811;DHT22;65470;47.324;8.548;2023-04-25T10:23:08;20.30;90.70
32811;DHT22;65470;47.324;8.548;2023-04-25T10:25:36;19.50;82.90
32811;DHT22;65470;47.324;8.548;2023-04-25T10:28:03;18.70;85.50
32811;DHT22;65470;47.324;8.548;2023-04-25T10:30:29;18.10;88.30
32811;DHT22;65470;47.324;8.548;2023-04-25T10:32:55;17.40;92.40
32811;DHT22;65470;47.324;8.548;2023-04-25T10:35:26;17.00;94.60
32811;DHT22;65470;47.324;8.548;2023-04-25T10:38:05;16.10;93.90
32811;DHT22;65470;47.324;8.548;2023-04-25T10:40:34;15.60;97.70
32811;DHT22;65470;47.324;8.548;2023-04-25T10:45:59;15.50;99.30
32811;DHT22;65470;47.324;8.548;2023-04-25T10:48:26;15.30;99.40
32811;DHT22;65470;47.324;8.548;2023-04-25T10:51:11;15.30;99.90
32811;DHT22;65470;47.324;8.548;2023-04-25T10:53:37;15.60;99.90
32811;DHT22;65470;47.324;8.548;2023-04-25T10:56:18;16.20;94.80
32811;DHT22;65470;47.324;8.548;2023-04-25T10:58:45;17.30;95.00
32811;DHT22;65470;47.324;8.548;2023-04-25T11:01:13;18.00;93.40
32811;DHT22;65470;47.324;8.548;2023-04-25T11:03:42;18.70;92.00
32811;DHT22;65470;47.324;8.548;2023-04-25T11:06:23;20.20;89.00
32811;DHT22;65470;47.324;8.548;2023-04-25T11:08:52;20.90;80.90
32811;DHT22;65470;47.324;8.548;2023-04-25T11:11:18;19.70;73.60
32811;DHT22;65470;47.324;8.548;2023-04-25T11:13:47;19.80;75.00
32811;DHT22;65470;47.324;8.548;2023-04-25T11:16:13;19.70;77.70
32811;DHT22;65470;47.324;8.548;2023-04-25T11:18:41;20.00;76.00
32811;DHT22;65470;47.324;8.548;2023-04-25T11:21:07;20.20;78.30
32811;DHT22;65470;47.324;8.548;2023-04-25T11:23:33;20.80;80.80
32811;DHT22;65470;47.324;8.548;2023-04-25T11:25:58;22.20;70.90
32811;DHT22;65470;47.324;8.548;2023-04-25T11:28:26;22.60;65.20
32811;DHT22;65470;47.324;8.548;2023-04-25T11:30:52;21.50;64.00
32811;DHT22;65470;47.324;8.548;2023-04-25T11:33:22;20.80;68.20
32811;DHT22;65470;47.324;8.548;2023-04-25T11:35:48;20.20;71.20
32811;DHT22;65470;47.324;8.548;2023-04-25T11:38:14;18.80;74.70
32811;DHT22;65470;47.324;8.548;2023-04-25T11:40:40;18.70;79.90
32811;DHT22;65470;47.324;8.548;2023-04-25T11:43:06;20.30;81.00
32811;DHT22;65470;47.324;8.548;2023-04-25T11:45:32;22.30;74.10
32811;DHT22;65470;47.324;8.548;2023-04-25T11:47:58;23.40;68.10
32811;DHT22;65470;47.324;8.548;2023-04-25T11:50:23;23.60;67.90
32811;DHT22;65470;47.324;8.548;2023-04-25T11:52:49;23.40;65.40
32811;DHT22;65470;47.324;8.548;2023-04-25T11:55:19;23.90;61.70
32811;DHT22;65470;47.324;8.548;2023-04-25T11:57:47;24.40;60.30
32811;DHT22;65470;47.324;8.548;2023-04-25T12:00:16;25.10;61.00
32811;DHT22;65470;47.324;8.548;2023-04-25T12:02:53;25.20;57.20
32811;DHT22;65470;47.324;8.548;2023-04-25T12:05:19;24.80;56.80
32811;DHT22;65470;47.324;8.548;2023-04-25T12:07:46;24.50;56.40
32811;DHT22;65470;47.324;8.548;2023-04-25T12:10:14;25.00;55.50
32811;DHT22;65470;47.324;8.548;2023-04-25T12:12:43;23.90;55.20
32811;DHT22;65470;47.324;8.548;2023-04-25T12:15:16;23.80;56.20
32811;DHT22;65470;47.324;8.548;2023-04-25T12:17:49;23.90;59.20
32811;DHT22;65470;47.324;8.548;2023-04-25T12:20:16;24.60;56.00
32811;DHT22;65470;47.324;8.548;2023-04-25T12:22:43;24.50;57.20
32811;DHT22;65470;47.324;8.548;2023-04-25T12:25:11;25.50;56.10
32811;DHT22;65470;47.324;8.548;2023-04-25T12:27:37;25.20;54.40
32811;DHT22;65470;47.324;8.548;2023-04-25T12:30:03;23.90;55.20
32811;DHT22;65470;47.324;8.548;2023-04-25T12:32:30;23.20;61.20
32811;DHT22;65470;47.324;8.548;2023-04-25T12:34:56;22.40;57.90
32811;DHT22;65470;47.324;8.548;2023-04-25T12:37:21;20.60;63.30
32811;DHT22;65470;47.324;8.548;2023-04-25T12:39:47;20.30;65.30
32811;DHT22;65470;47.324;8.548;2023-04-25T12:42:12;19.30;66.20
32811;DHT22;65470;47.324;8.548;2023-04-25T12:44:38;18.20;70.90
32811;DHT22;65470;47.324;8.548;2023-04-25T12:47:04;18.00;71.90
32811;DHT22;65470;47.324;8.548;2023-04-25T12:49:30;17.90;72.40
32811;DHT22;65470;47.324;8.548;2023-04-25T12:51:57;18.10;73.40
32811;DHT22;65470;47.324;8.548;2023-04-25T12:54:22;18.90;73.40
32811;DHT22;65470;47.324;8.548;2023-04-25T12:56:48;20.00;69.40
32811;DHT22;65470;47.324;8.548;2023-04-25T12:59:13;19.70;69.50
32811;DHT22;65470;47.324;8.548;2023-04-25T13:01:39;18.60;74.10
32811;DHT22;65470;47.324;8.548;2023-04-25T13:04:05;17.90;75.60
32811;DHT22;65470;47.324;8.548;2023-04-25T13:06:30;17.40;77.70
32811;DHT22;65470;47.324;8.548;2023-04-25T13:08:56;16.90;78.40
32811;DHT22;65470;47.324;8.548;2023-04-25T13:11:22;16.90;79.80
32811;DHT22;65470;47.324;8.548;2023-04-25T13:13:47;17.40;79.20
32811;DHT22;65470;47.324;8.548;2023-04-25T13:16:13;18.00;76.70
32811;DHT22;65470;47.324;8.548;2023-04-25T13:18:40;19.00;74.20
32811;DHT22;65470;47.324;8.548;2023-04-25T13:21:05;19.00;72.30
32811;DHT22;65470;47.324;8.548;2023-04-25T13:23:31;19.10;73.50
32811;DHT22;65470;47.324;8.548;2023-04-25T13:25:57;19.40;71.10
32811;DHT22;65470;47.324;8.548;2023-04-25T13:28:24;19.00;72.50
32811;DHT22;65470;47.324;8.548;2023-04-25T13:30:49;18.80;73.10
32811;DHT22;65470;47.324;8.548;2023-04-25T13:33:15;18.40;76.10
32811;DHT22;65470;47.324;8.548;2023-04-25T13:35:41;18.70;74.60
32811;DHT22;65470;47.324;8.548;2023-04-25T13:38:07;17.80;75.80
32811;DHT22;65470;47.324;8.548;2023-04-25T13:40:34;17.10;77.60
32811;DHT22;65470;47.324;8.548;2023-04-25T13:43:01;16.70;81.30
32811;DHT22;65470;47.324;8.548;2023-04-25T13:45:27;17.30;80.00
32811;DHT22;65470;47.324;8.548;2023-04-25T13:47:52;17.20;80.80
32811;DHT22;65470;47.324;8.548;2023-04-25T13:50:18;16.80;80.00
32811;DHT22;65470;47.324;8.548;2023-04-25T13:52:44;16.60;82.50
32811;DHT22;65470;47.324;8.548;2023-04-25T13:55:10;17.40;83.90
32811;DHT22;65470;47.324;8.548;2023-04-25T13:57:37;17.60;78.60
32811;DHT22;65470;47.324;8.548;2023-04-25T14:00:04;17.60;80.00
32811;DHT22;65470;47.324;8.548;2023-04-25T14:02:35;17.40;82.70
32811;DHT22;65470;47.324;8.548;2023-04-25T14:05:01;16.70;82.60
32811;DHT22;65470;47.324;8.548;2023-04-25T14:07:26;16.00;84.00
32811;DHT22;65470;47.324;8.548;2023-04-25T14:09:52;15.80;85.70
32811;DHT22;65470;47.324;8.548;2023-04-25T14:12:18;15.80;84.30
32811;DHT22;65470;47.324;8.548;2023-04-25T14:14:43;15.80;84.60
32811;DHT22;65470;47.324;8.548;2023-04-25T14:17:09;16.30;85.80
32811;DHT22;65470;47.324;8.548;2023-04-25T14:19:35;16.90;82.70
32811;DHT22;65470;47.324;8.548;2023-04-25T14:22:01;16.90;81.50
32811;DHT22;65470;47.324;8.548;2023-04-25T14:24:26;16.90;81.40
32811;DHT22;65470;47.324;8.548;2023-04-25T14:26:52;17.10;80.90
32811;DHT22;65470;47.324;8.548;2023-04-25T14:29:17;17.40;79.70
32811;DHT22;65470;47.324;8.548;2023-04-25T14:31:43;17.40;79.80
32811;DHT22;65470;47.324;8.548;2023-04-25T14:34:10;17.30;79.60
32811;DHT22;65470;47.324;8.548;2023-04-25T14:36:36;17.30;80.10
32811;DHT22;65470;47.324;8.548;2023-04-25T14:39:03;17.20;81.70
32811;DHT22;65470;47.324;8.548;2023-04-25T14:41:30;16.90;84.00
32811;DHT22;65470;47.324;8.548;2023-04-25T14:43:55;16.30;85.40
32811;DHT22;65470;47.324;8.548;2023-04-25T14:46:22;16.00;87.30
32811;DHT22;65470;47.324;8.548;2023-04-25T14:48:49;15.50;88.20
32811;DHT22;65470;47.324;8.548;2023-04-25T14:51:15;15.10;90.30
32811;DHT22;65470;47.324;8.548;2023-04-25T14:53:41;14.80;90.50
32811;DHT22;65470;47.324;8.548;2023-04-25T14:56:07;14.60;91.70
32811;DHT22;65470;47.324;8.548;2023-04-25T14:58:34;14.40;92.60
32811;DHT22;65470;47.324;8.548;2023-04-25T15:01:00;14.40;94.00
32811;DHT22;65470;47.324;8.548;2023-04-25T15:03:26;14.30;95.80
32811;DHT22;65470;47.324;8.548;2023-04-25T15:05:53;14.10;96.80
32811;DHT22;65470;47.324;8.548;2023-04-25T15:08:20;13.90;98.00
32811;DHT22;65470;47.324;8.548;2023-04-25T15:10:46;13.80;99.20
32811;DHT22;65470;47.324;8.548;2023-04-25T15:13:12;13.60;99.90
32811;DHT22;65470;47.324;8.548;2023-04-25T15:15:37;13.30;99.90
32811;DHT22;65470;47.324;8.548;2023-04-25T15:18:03;13.20;99.90
32811;DHT22;65470;47.324;8.548;2023-04-25T15:20:29;13.20;99.90
32811;DHT22;65470;47.324;8.548;2023-04-25T15:22:55;13.10;99.90
32811;DHT22;65470;47.324;8.548;2023-04-25T15:25:21;12.80;99.90
32811;DHT22;65470;47.324;8.548;2023-04-25T15:27:46;12.70;99.90
32811;DHT22;65470;47.324;8.548;2023-04-25T15:30:17;12.50;99.90
32811;DHT22;65470;47.324;8.548;2023-04-25T15:32:44;12.30;99.90
32811;DHT22;65470;47.324;8.548;2023-04-25T15:35:19;12.30;99.90